sensor_id;sensor_type;location;lat;lon;timestamp;temperature;humidity
7360;DHT22;3720;48.274;7.796;2023-12-14T00:00:43;8.20;99.90
7360;DHT22;3720;48.274;7.796;2023-12-14T00:03:15;8.20;99.90
7360;DHT22;3720;48.274;7.796;2023-12-14T00:05:46;8.20;99.90
7360;DHT22;3720;48.274;7.796;2023-12-14T00:08:18;8.30;99.90
7360;DHT22;3720;48.274;7.796;2023-12-14T00:10:49;8.30;99.90
7360;DHT22;3720;48.274;7.796;2023-12-14T00:13:21;8.20;99.90
7360;DHT22;3720;48.274;7.796;2023-12-14T00:15:54;8.20;99.90
7360;DHT22;3720;48.274;7.796;2023-12-14T00:18:26;8.20;99.90
7360;DHT22;3720;48.274;7.796;2023-12-14T00:20:58;8.30;99.90
7360;DHT22;3720;48.274;7.796;2023-12-14T00:23:30;8.30;99.90
7360;DHT22;3720;48.274;7.796;2023-12-14T00:26:02;8.30;99.90
7360;DHT22;3720;48.274;7.796;2023-12-14T00:28:34;8.40;99.90
7360;DHT22;3720;48.274;7.796;2023-12-14T00:31:07;8.40;99.90
7360;DHT22;3720;48.274;7.796;2023-12-14T00:33:39;8.40;99.90
7360;DHT22;3720;48.274;7.796;2023-12-14T00:36:18;8.40;99.90
7360;DHT22;3720;48.274;7.796;2023-12-14T00:38:50;8.40;99.90
7360;DHT22;3720;48.274;7.796;2023-12-14T00:41:21;8.30;99.90
7360;DHT22;3720;48.274;7.796;2023-12-14T00:43:53;8.40;99.90
7360;DHT22;3720;48.274;7.796;2023-12-14T00:46:26;8.40;99.90
7360;DHT22;3720;48.274;7.796;2023-12-14T00:48:58;8.30;99.90
7360;DHT22;3720;48.274;7.796;2023-12-14T00:51:30;8.40;99.90
7360;DHT22;3720;48.274;7.796;2023-12-14T00:54:02;8.40;99.90
7360;DHT22;3720;48.274;7.796;2023-12-14T00:56:34;8.40;99.90
7360;DHT22;3720;48.274;7.796;2023-12-14T00:59:05;8.40;99.90
7360;DHT22;3720;48.274;7.796;2023-12-14T01:01:38;8.40;99.90
7360;DHT22;3720;48.274;7.796;2023-12-14T01:04:10;8.40;99.90
7360;DHT22;3720;48.274;7.796;2023-12-14T01:06:42;8.40;99.90
7360;DHT22;3720;48.274;7.796;2023-12-14T01:09:14;8.40;99.90
7360;DHT22;3720;48.274;7.796;2023-12-14T01:11:46;8.40;99.90
7360;DHT22;3720;48.274;7.796;2023-12-14T01:14:17;8.40;99.90
7360;DHT22;3720;48.274;7.796;2023-12-14T01:16:51;8.30;99.90
7360;DHT22;3720;48.274;7.796;2023-12-14T01:19:22;8.30;99.90
7360;DHT22;3720;48.274;7.796;2023-12-14T01:21:55;8.20;99.90
7360;DHT22;3720;48.274;7.796;2023-12-14T01:24:27;8.30;99.90
7360;DHT22;3720;48.274;7.796;2023-12-14T01:26:59;8.30;99.90
7360;DHT22;3720;48.274;7.796;2023-12-14T01:29:31;8.30;99.90
7360;DHT22;3720;48.274;7.796;2023-12-14T01:32:05;8.30;99.90
7360;DHT22;3720;48.274;7.796;2023-12-14T01:34:37;8.30;99.90
7360;DHT22;3720;48.274;7.796;2023-12-14T01:37:08;8.40;99.90
7360;DHT22;3720;48.274;7.796;2023-12-14T01:39:40;8.40;99.90
7360;DHT22;3720;48.274;7.796;2023-12-14T01:42:12;8.50;99.90
7360;DHT22;3720;48.274;7.796;2023-12-14T01:44:44;8.40;99.90
7360;DHT22;3720;48.274;7.796;2023-12-14T01:47:17;8.40;99.90
7360;DHT22;3720;48.274;7.796;2023-12-14T01:49:49;8.40;99.90
7360;DHT22;3720;48.274;7.796;2023-12-14T01:52:21;8.40;99.90
7360;DHT22;3720;48.274;7.796;2023-12-14T01:54:53;8.40;99.90
7360;DHT22;3720;48.274;7.796;2023-12-14T01:57:25;8.40;99.90
7360;DHT22;3720;48.274;7.796;2023-12-14T01:59:57;8.40;99.90
7360;DHT22;3720;48.274;7.796;2023-12-14T02:02:30;8.30;99.90
7360;DHT22;3720;48.274;7.796;2023-12-14T02:05:02;8.40;99.90
7360;DHT22;3720;48.274;7.796;2023-12-14T02:07:34;8.30;99.90
7360;DHT22;3720;48.274;7.796;2023-12-14T02:10:07;8.30;99.90
7360;DHT22;3720;48.274;7.796;2023-12-14T02:12:39;8.40;99.90
7360;DHT22;3720;48.274;7.796;2023-12-14T02:15:11;8.40;99.90
7360;DHT22;3720;48.274;7.796;2023-12-14T02:17:44;8.50;99.90
7360;DHT22;3720;48.274;7.796;2023-12-14T02:20:16;8.40;99.90
7360;DHT22;3720;48.274;7.796;2023-12-14T02:22:52;8.40;99.90
7360;DHT22;3720;48.274;7.796;2023-12-14T02:25:24;8.40;99.90
7360;DHT22;3720;48.274;7.796;2023-12-14T02:27:56;8.40;99.90
7360;DHT22;3720;48.274;7.796;2023-12-14T02:30:28;8.40;99.90
7360;DHT22;3720;48.274;7.796;2023-12-14T02:33:00;8.40;99.90
7360;DHT22;3720;48.274;7.796;2023-12-14T02:35:32;8.40;99.90
7360;DHT22;3720;48.274;7.796;2023-12-14T02:38:05;8.30;99.90
7360;DHT22;3720;48.274;7.796;2023-12-14T02:40:37;8.30;99.90
7360;DHT22;3720;48.274;7.796;2023-12-14T02:43:09;8.20;99.90
7360;DHT22;3720;48.274;7.796;2023-12-14T02:45:40;8.30;99.90
7360;DHT22;3720;48.274;7.796;2023-12-14T02:48:12;8.20;99.90
7360;DHT22;3720;48.274;7.796;2023-12-14T02:50:44;8.20;99.90
7360;DHT22;3720;48.274;7.796;2023-12-14T02:53:17;8.20;99.90
7360;DHT22;3720;48.274;7.796;2023-12-14T02:55:49;8.20;99.90
7360;DHT22;3720;48.274;7.796;2023-12-14T02:58:21;8.20;99.90
7360;DHT22;3720;48.274;7.796;2023-12-14T03:00:53;8.10;99.90
7360;DHT22;3720;48.274;7.796;2023-12-14T03:03:24;8.10;99.90
7360;DHT22;3720;48.274;7.796;2023-12-14T03:05:56;8.10;99.90
7360;DHT22;3720;48.274;7.796;2023-12-14T03:08:29;8.20;99.90
7360;DHT22;3720;48.274;7.796;2023-12-14T03:11:01;8.10;99.90
7360;DHT22;3720;48.274;7.796;2023-12-14T03:13:33;8.20;99.90
7360;DHT22;3720;48.274;7.796;2023-12-14T03:16:05;8.10;99.90
7360;DHT22;3720;48.274;7.796;2023-12-14T03:18:37;8.10;99.90
7360;DHT22;3720;48.274;7.796;2023-12-14T03:21:09;8.10;99.90
7360;DHT22;3720;48.274;7.796;2023-12-14T03:23:42;8.10;99.90
7360;DHT22;3720;48.274;7.796;2023-12-14T03:26:14;8.10;99.90
7360;DHT22;3720;48.274;7.796;2023-12-14T03:28:46;8.10;99.90
7360;DHT22;3720;48.274;7.796;2023-12-14T03:31:18;8.10;99.90
7360;DHT22;3720;48.274;7.796;2023-12-14T03:33:50;8.00;99.90
7360;DHT22;3720;48.274;7.796;2023-12-14T03:36:21;8.10;99.90
7360;DHT22;3720;48.274;7.796;2023-12-14T03:38:58;8.10;99.90
7360;DHT22;3720;48.274;7.796;2023-12-14T03:41:30;8.10;99.90
7360;DHT22;3720;48.274;7.796;2023-12-14T03:44:01;8.10;99.90
7360;DHT22;3720;48.274;7.796;2023-12-14T03:46:34;8.20;99.90
7360;DHT22;3720;48.274;7.796;2023-12-14T03:49:06;8.20;99.90
7360;DHT22;3720;48.274;7.796;2023-12-14T03:51:38;8.20;99.90
7360;DHT22;3720;48.274;7.796;2023-12-14T03:54:11;8.20;99.90
7360;DHT22;3720;48.274;7.796;2023-12-14T03:56:42;8.20;99.90
7360;DHT22;3720;48.274;7.796;2023-12-14T03:59:14;8.50;99.90
7360;DHT22;3720;48.274;7.796;2023-12-14T04:01:46;8.20;99.90
7360;DHT22;3720;48.274;7.796;2023-12-14T04:04:18;8.30;99.90
7360;DHT22;3720;48.274;7.796;2023-12-14T04:06:50;8.30;99.90
7360;DHT22;3720;48.274;7.796;2023-12-14T04:09:23;8.30;99.90
7360;DHT22;3720;48.274;7.796;2023-12-14T04:11:55;8.30;99.90
7360;DHT22;3720;48.274;7.796;2023-12-14T04:14:27;8.30;99.90
7360;DHT22;3720;48.274;7.796;2023-12-14T04:16:58;8.30;99.90
7360;DHT22;3720;48.274;7.796;2023-12-14T04:19:30;8.30;99.90
7360;DHT22;3720;48.274;7.796;2023-12-14T04:22:02;8.20;99.90
7360;DHT22;3720;48.274;7.796;2023-12-14T04:24:35;8.20;99.90
7360;DHT22;3720;48.274;7.796;2023-12-14T04:27:07;8.20;99.90
7360;DHT22;3720;48.274;7.796;2023-12-14T04:29:39;8.20;99.90
7360;DHT22;3720;48.274;7.796;2023-12-14T04:32:11;8.20;99.90
7360;DHT22;3720;48.274;7.796;2023-12-14T04:34:43;8.30;99.90
7360;DHT22;3720;48.274;7.796;2023-12-14T04:37:14;8.20;99.90
7360;DHT22;3720;48.274;7.796;2023-12-14T04:39:48;8.60;99.90
7360;DHT22;3720;48.274;7.796;2023-12-14T04:42:20;8.30;99.90
7360;DHT22;3720;48.274;7.796;2023-12-14T04:44:51;8.30;99.90
7360;DHT22;3720;48.274;7.796;2023-12-14T04:47:23;8.30;99.90
7360;DHT22;3720;48.274;7.796;2023-12-14T04:49:55;8.30;99.90
7360;DHT22;3720;48.274;7.796;2023-12-14T04:52:27;8.30;99.90
7360;DHT22;3720;48.274;7.796;2023-12-14T04:55:00;8.30;99.90
7360;DHT22;3720;48.274;7.796;2023-12-14T04:57:32;8.30;99.90
7360;DHT22;3720;48.274;7.796;2023-12-14T05:00:05;8.40;99.90
7360;DHT22;3720;48.274;7.796;2023-12-14T05:02:38;8.30;99.90
7360;DHT22;3720;48.274;7.796;2023-12-14T05:05:09;8.30;99.90
7360;DHT22;3720;48.274;7.796;2023-12-14T05:07:42;8.00;99.90
7360;DHT22;3720;48.274;7.796;2023-12-14T05:10:16;8.20;99.90
7360;DHT22;3720;48.274;7.796;2023-12-14T05:12:48;8.30;99.90
7360;DHT22;3720;48.274;7.796;2023-12-14T05:15:19;8.20;99.90
7360;DHT22;3720;48.274;7.796;2023-12-14T05:17:51;8.60;99.90
7360;DHT22;3720;48.274;7.796;2023-12-14T05:20:23;8.40;99.90
7360;DHT22;3720;48.274;7.796;2023-12-14T05:22:55;8.20;99.90
7360;DHT22;3720;48.274;7.796;2023-12-14T05:25:28;7.90;99.90
7360;DHT22;3720;48.274;7.796;2023-12-14T05:28:00;8.00;99.90
7360;DHT22;3720;48.274;7.796;2023-12-14T05:30:32;8.20;99.90
7360;DHT22;3720;48.274;7.796;2023-12-14T05:33:03;8.10;99.90
7360;DHT22;3720;48.274;7.796;2023-12-14T05:35:35;8.10;99.90
7360;DHT22;3720;48.274;7.796;2023-12-14T05:38:07;8.10;99.90
7360;DHT22;3720;48.274;7.796;2023-12-14T05:40:40;8.10;99.90
7360;DHT22;3720;48.274;7.796;2023-12-14T05:43:12;8.20;99.90
7360;DHT22;3720;48.274;7.796;2023-12-14T05:45:44;8.20;99.90
7360;DHT22;3720;48.274;7.796;2023-12-14T05:48:16;8.20;99.90
7360;DHT22;3720;48.274;7.796;2023-12-14T05:50:48;8.20;99.90
7360;DHT22;3720;48.274;7.796;2023-12-14T05:53:20;8.20;99.90
7360;DHT22;3720;48.274;7.796;2023-12-14T05:55:53;8.20;99.90
7360;DHT22;3720;48.274;7.796;2023-12-14T05:58:25;8.10;99.90
7360;DHT22;3720;48.274;7.796;2023-12-14T06:00:57;8.10;99.90
7360;DHT22;3720;48.274;7.796;2023-12-14T06:03:28;8.10;99.90
7360;DHT22;3720;48.274;7.796;2023-12-14T06:06:02;8.10;99.90
7360;DHT22;3720;48.274;7.796;2023-12-14T06:08:34;8.10;99.90
7360;DHT22;3720;48.274;7.796;2023-12-14T06:11:07;8.10;99.90
7360;DHT22;3720;48.274;7.796;2023-12-14T06:13:39;8.10;99.90
7360;DHT22;3720;48.274;7.796;2023-12-14T06:16:11;8.10;99.90
7360;DHT22;3720;48.274;7.796;2023-12-14T06:18:44;8.10;99.90
7360;DHT22;3720;48.274;7.796;2023-12-14T06:21:16;8.20;99.90
7360;DHT22;3720;48.274;7.796;2023-12-14T06:23:48;8.10;99.90
7360;DHT22;3720;48.274;7.796;2023-12-14T06:26:21;8.10;99.90
7360;DHT22;3720;48.274;7.796;2023-12-14T06:28:53;8.10;99.90
7360;DHT22;3720;48.274;7.796;2023-12-14T06:31:24;8.10;99.90
7360;DHT22;3720;48.274;7.796;2023-12-14T06:33:56;8.10;99.90
7360;DHT22;3720;48.274;7.796;2023-12-14T06:36:31;8.10;99.90
7360;DHT22;3720;48.274;7.796;2023-12-14T06:39:03;8.10;99.90
7360;DHT22;3720;48.274;7.796;2023-12-14T06:41:37;8.00;99.90
7360;DHT22;3720;48.274;7.796;2023-12-14T06:44:09;8.00;99.90
7360;DHT22;3720;48.274;7.796;2023-12-14T06:46:41;8.10;99.90
7360;DHT22;3720;48.274;7.796;2023-12-14T06:49:12;8.10;99.90
7360;DHT22;3720;48.274;7.796;2023-12-14T06:51:44;8.10;99.90
7360;DHT22;3720;48.274;7.796;2023-12-14T06:54:16;8.10;99.90
7360;DHT22;3720;48.274;7.796;2023-12-14T06:56:49;8.20;99.90
7360;DHT22;3720;48.274;7.796;2023-12-14T06:59:21;8.30;99.90
7360;DHT22;3720;48.274;7.796;2023-12-14T07:01:53;8.20;99.90
7360;DHT22;3720;48.274;7.796;2023-12-14T07:04:25;8.20;99.90
7360;DHT22;3720;48.274;7.796;2023-12-14T07:06:56;8.10;99.90
7360;DHT22;3720;48.274;7.796;2023-12-14T07:09:28;8.10;99.90
7360;DHT22;3720;48.274;7.796;2023-12-14T07:12:02;8.20;99.90
7360;DHT22;3720;48.274;7.796;2023-12-14T07:14:34;8.10;99.90
7360;DHT22;3720;48.274;7.796;2023-12-14T07:17:06;8.10;99.90
7360;DHT22;3720;48.274;7.796;2023-12-14T07:19:38;8.20;99.90
7360;DHT22;3720;48.274;7.796;2023-12-14T07:22:10;8.10;99.90
7360;DHT22;3720;48.274;7.796;2023-12-14T07:24:41;8.10;99.90
7360;DHT22;3720;48.274;7.796;2023-12-14T07:27:15;8.20;99.90
7360;DHT22;3720;48.274;7.796;2023-12-14T07:29:46;8.20;99.90
7360;DHT22;3720;48.274;7.796;2023-12-14T07:32:18;8.20;99.90
7360;DHT22;3720;48.274;7.796;2023-12-14T07:34:50;8.20;99.90
7360;DHT22;3720;48.274;7.796;2023-12-14T07:37:22;8.10;99.90
7360;DHT22;3720;48.274;7.796;2023-12-14T07:39:54;8.10;99.90
7360;DHT22;3720;48.274;7.796;2023-12-14T07:42:27;8.20;99.90
7360;DHT22;3720;48.274;7.796;2023-12-14T07:44:59;8.30;99.90
7360;DHT22;3720;48.274;7.796;2023-12-14T07:47:31;8.20;99.90
7360;DHT22;3720;48.274;7.796;2023-12-14T07:50:03;8.30;99.90
7360;DHT22;3720;48.274;7.796;2023-12-14T07:52:35;8.30;99.90
7360;DHT22;3720;48.274;7.796;2023-12-14T07:55:08;8.30;99.90
7360;DHT22;3720;48.274;7.796;2023-12-14T07:57:41;8.30;99.90
7360;DHT22;3720;48.274;7.796;2023-12-14T08:00:13;8.40;99.90
7360;DHT22;3720;48.274;7.796;2023-12-14T08:02:45;8.40;99.90
7360;DHT22;3720;48.274;7.796;2023-12-14T08:05:17;8.50;99.90
7360;DHT22;3720;48.274;7.796;2023-12-14T08:07:49;8.50;99.90
7360;DHT22;3720;48.274;7.796;2023-12-14T08:10:22;8.50;99.90
7360;DHT22;3720;48.274;7.796;2023-12-14T08:12:56;8.50;99.90
7360;DHT22;3720;48.274;7.796;2023-12-14T08:15:27;8.80;99.90
7360;DHT22;3720;48.274;7.796;2023-12-14T08:20:32;8.20;99.90
7360;DHT22;3720;48.274;7.796;2023-12-14T08:23:04;8.30;99.90
7360;DHT22;3720;48.274;7.796;2023-12-14T08:25:36;8.60;99.90
7360;DHT22;3720;48.274;7.796;2023-12-14T08:28:09;8.70;99.90
7360;DHT22;3720;48.274;7.796;2023-12-14T08:30:41;8.50;99.90
7360;DHT22;3720;48.274;7.796;2023-12-14T08:33:13;8.50;99.90
7360;DHT22;3720;48.274;7.796;2023-12-14T08:35:44;8.50;99.90
7360;DHT22;3720;48.274;7.796;2023-12-14T08:38:16;8.50;99.90
7360;DHT22;3720;48.274;7.796;2023-12-14T08:40:48;8.50;99.90
7360;DHT22;3720;48.274;7.796;2023-12-14T08:43:21;8.60;99.90
7360;DHT22;3720;48.274;7.796;2023-12-14T08:45:53;8.50;99.90
7360;DHT22;3720;48.274;7.796;2023-12-14T08:48:25;8.50;99.90
7360;DHT22;3720;48.274;7.796;2023-12-14T08:50:57;8.50;99.90
7360;DHT22;3720;48.274;7.796;2023-12-14T08:53:29;8.50;99.90
7360;DHT22;3720;48.274;7.796;2023-12-14T08:56:00;8.60;99.90
7360;DHT22;3720;48.274;7.796;2023-12-14T08:58:34;8.60;99.90
7360;DHT22;3720;48.274;7.796;2023-12-14T09:01:06;8.60;99.90
7360;DHT22;3720;48.274;7.796;2023-12-14T09:03:38;8.60;99.90
7360;DHT22;3720;48.274;7.796;2023-12-14T09:06:10;8.60;99.90
7360;DHT22;3720;48.274;7.796;2023-12-14T09:08:41;8.50;99.90
7360;DHT22;3720;48.274;7.796;2023-12-14T09:11:13;8.50;99.90
7360;DHT22;3720;48.274;7.796;2023-12-14T09:13:47;8.60;99.90
7360;DHT22;3720;48.274;7.796;2023-12-14T09:16:19;8.60;99.90
7360;DHT22;3720;48.274;7.796;2023-12-14T09:18:50;8.60;99.90
7360;DHT22;3720;48.274;7.796;2023-12-14T09:21:22;8.60;99.90
7360;DHT22;3720;48.274;7.796;2023-12-14T09:23:55;8.60;99.90
7360;DHT22;3720;48.274;7.796;2023-12-14T09:26:26;8.60;99.90
7360;DHT22;3720;48.274;7.796;2023-12-14T09:29:00;8.60;99.90
7360;DHT22;3720;48.274;7.796;2023-12-14T09:31:32;8.60;99.90
7360;DHT22;3720;48.274;7.796;2023-12-14T09:34:04;8.60;99.90
7360;DHT22;3720;48.274;7.796;2023-12-14T09:36:36;8.70;99.90
7360;DHT22;3720;48.274;7.796;2023-12-14T09:39:08;8.70;99.90
7360;DHT22;3720;48.274;7.796;2023-12-14T09:41:41;8.70;99.90
7360;DHT22;3720;48.274;7.796;2023-12-14T09:44:14;8.70;99.90
7360;DHT22;3720;48.274;7.796;2023-12-14T09:46:46;8.70;99.90
7360;DHT22;3720;48.274;7.796;2023-12-14T09:49:21;8.80;99.90
7360;DHT22;3720;48.274;7.796;2023-12-14T09:51:55;8.80;99.90
7360;DHT22;3720;48.274;7.796;2023-12-14T09:54:27;8.70;99.90
7360;DHT22;3720;48.274;7.796;2023-12-14T09:56:59;8.80;99.90
7360;DHT22;3720;48.274;7.796;2023-12-14T09:59:32;8.80;99.90
7360;DHT22;3720;48.274;7.796;2023-12-14T10:02:13;8.80;99.90
7360;DHT22;3720;48.274;7.796;2023-12-14T10:04:46;8.80;99.90
7360;DHT22;3720;48.274;7.796;2023-12-14T10:07:18;8.90;99.90
7360;DHT22;3720;48.274;7.796;2023-12-14T10:09:50;8.90;99.90
7360;DHT22;3720;48.274;7.796;2023-12-14T10:12:23;8.90;99.90
7360;DHT22;3720;48.274;7.796;2023-12-14T10:15:01;8.90;99.90
7360;DHT22;3720;48.274;7.796;2023-12-14T10:17:36;8.90;99.90
7360;DHT22;3720;48.274;7.796;2023-12-14T10:20:08;8.90;99.90
7360;DHT22;3720;48.274;7.796;2023-12-14T10:22:40;9.00;99.90
7360;DHT22;3720;48.274;7.796;2023-12-14T10:25:12;9.00;99.90
7360;DHT22;3720;48.274;7.796;2023-12-14T10:27:46;9.10;99.90
7360;DHT22;3720;48.274;7.796;2023-12-14T10:30:19;9.10;99.90
7360;DHT22;3720;48.274;7.796;2023-12-14T10:32:51;9.20;99.90
7360;DHT22;3720;48.274;7.796;2023-12-14T10:35:23;9.20;99.90
7360;DHT22;3720;48.274;7.796;2023-12-14T10:37:55;9.10;99.90
7360;DHT22;3720;48.274;7.796;2023-12-14T10:40:30;9.20;99.90
7360;DHT22;3720;48.274;7.796;2023-12-14T10:43:03;9.20;99.90
7360;DHT22;3720;48.274;7.796;2023-12-14T10:45:38;9.40;99.90
7360;DHT22;3720;48.274;7.796;2023-12-14T10:48:10;9.60;99.90
7360;DHT22;3720;48.274;7.796;2023-12-14T10:50:43;10.10;99.90
7360;DHT22;3720;48.274;7.796;2023-12-14T10:53:16;10.60;99.90
7360;DHT22;3720;48.274;7.796;2023-12-14T10:55:48;10.90;99.90
7360;DHT22;3720;48.274;7.796;2023-12-14T10:58:22;11.00;99.90
7360;DHT22;3720;48.274;7.796;2023-12-14T11:01:00;11.00;99.90
7360;DHT22;3720;48.274;7.796;2023-12-14T11:03:33;10.90;99.90
7360;DHT22;3720;48.274;7.796;2023-12-14T11:06:20;10.80;99.90
7360;DHT22;3720;48.274;7.796;2023-12-14T11:08:52;10.70;99.90
7360;DHT22;3720;48.274;7.796;2023-12-14T11:11:28;10.60;99.90
7360;DHT22;3720;48.274;7.796;2023-12-14T11:14:00;10.50;99.90
7360;DHT22;3720;48.274;7.796;2023-12-14T11:16:38;10.50;99.90
7360;DHT22;3720;48.274;7.796;2023-12-14T11:19:25;10.40;99.90
7360;DHT22;3720;48.274;7.796;2023-12-14T11:22:12;10.30;99.90
7360;DHT22;3720;48.274;7.796;2023-12-14T11:24:52;10.20;99.90
7360;DHT22;3720;48.274;7.796;2023-12-14T11:27:28;10.10;99.90
7360;DHT22;3720;48.274;7.796;2023-12-14T11:30:00;10.00;99.90
7360;DHT22;3720;48.274;7.796;2023-12-14T11:32:35;10.00;99.90
7360;DHT22;3720;48.274;7.796;2023-12-14T11:35:07;10.00;99.90
7360;DHT22;3720;48.274;7.796;2023-12-14T11:37:42;10.00;99.90
7360;DHT22;3720;48.274;7.796;2023-12-14T11:40:14;10.00;99.90
7360;DHT22;3720;48.274;7.796;2023-12-14T11:42:57;10.00;99.90
7360;DHT22;3720;48.274;7.796;2023-12-14T11:45:30;10.00;99.90
7360;DHT22;3720;48.274;7.796;2023-12-14T11:48:03;10.00;99.90
7360;DHT22;3720;48.274;7.796;2023-12-14T11:50:36;10.00;99.90
7360;DHT22;3720;48.274;7.796;2023-12-14T11:53:09;10.00;99.90
7360;DHT22;3720;48.274;7.796;2023-12-14T11:55:42;10.10;99.90
7360;DHT22;3720;48.274;7.796;2023-12-14T11:58:14;10.10;99.90
7360;DHT22;3720;48.274;7.796;2023-12-14T12:00:47;10.10;99.90
7360;DHT22;3720;48.274;7.796;2023-12-14T12:03:20;10.10;99.90
7360;DHT22;3720;48.274;7.796;2023-12-14T12:05:52;10.20;99.90
7360;DHT22;3720;48.274;7.796;2023-12-14T12:08:24;10.20;99.90
7360;DHT22;3720;48.274;7.796;2023-12-14T12:10:57;10.30;99.90
7360;DHT22;3720;48.274;7.796;2023-12-14T12:13:29;10.30;99.90
7360;DHT22;3720;48.274;7.796;2023-12-14T12:16:01;10.40;99.90
7360;DHT22;3720;48.274;7.796;2023-12-14T12:18:34;10.50;99.90
7360;DHT22;3720;48.274;7.796;2023-12-14T12:21:06;10.50;99.90
7360;DHT22;3720;48.274;7.796;2023-12-14T12:23:39;10.60;99.90
7360;DHT22;3720;48.274;7.796;2023-12-14T12:26:12;10.60;99.90
7360;DHT22;3720;48.274;7.796;2023-12-14T12:28:44;10.50;99.90
7360;DHT22;3720;48.274;7.796;2023-12-14T12:31:18;10.50;99.90
7360;DHT22;3720;48.274;7.796;2023-12-14T12:33:51;10.50;99.90
7360;DHT22;3720;48.274;7.796;2023-12-14T12:36:23;10.40;99.90
7360;DHT22;3720;48.274;7.796;2023-12-14T12:38:55;10.40;99.90
7360;DHT22;3720;48.274;7.796;2023-12-14T12:41:27;10.30;99.90
7360;DHT22;3720;48.274;7.796;2023-12-14T12:43:58;10.20;99.90
7360;DHT22;3720;48.274;7.796;2023-12-14T12:46:36;10.20;99.90
7360;DHT22;3720;48.274;7.796;2023-12-14T12:49:09;10.20;99.90
7360;DHT22;3720;48.274;7.796;2023-12-14T12:51:41;10.20;99.90
7360;DHT22;3720;48.274;7.796;2023-12-14T12:54:12;10.20;99.90
7360;DHT22;3720;48.274;7.796;2023-12-14T12:56:44;10.20;99.90
7360;DHT22;3720;48.274;7.796;2023-12-14T12:59:16;10.20;99.90
7360;DHT22;3720;48.274;7.796;2023-12-14T13:01:48;10.20;99.90
7360;DHT22;3720;48.274;7.796;2023-12-14T13:04:22;10.20;99.90
7360;DHT22;3720;48.274;7.796;2023-12-14T13:06:53;10.30;99.90
7360;DHT22;3720;48.274;7.796;2023-12-14T13:09:25;10.30;99.90
7360;DHT22;3720;48.274;7.796;2023-12-14T13:11:58;10.40;99.90
7360;DHT22;3720;48.274;7.796;2023-12-14T13:14:29;10.40;99.90
7360;DHT22;3720;48.274;7.796;2023-12-14T13:17:02;10.40;99.90
7360;DHT22;3720;48.274;7.796;2023-12-14T13:19:35;10.40;99.90
7360;DHT22;3720;48.274;7.796;2023-12-14T13:22:07;10.40;99.90
7360;DHT22;3720;48.274;7.796;2023-12-14T13:24:39;10.40;99.90
7360;DHT22;3720;48.274;7.796;2023-12-14T13:27:11;10.50;99.90
7360;DHT22;3720;48.274;7.796;2023-12-14T13:29:43;10.50;99.90
7360;DHT22;3720;48.274;7.796;2023-12-14T13:32:15;10.50;99.90
7360;DHT22;3720;48.274;7.796;2023-12-14T13:34:49;10.50;99.90
7360;DHT22;3720;48.274;7.796;2023-12-14T13:37:20;10.70;99.90
7360;DHT22;3720;48.274;7.796;2023-12-14T13:39:52;10.80;99.90
7360;DHT22;3720;48.274;7.796;2023-12-14T13:42:24;10.90;99.90
7360;DHT22;3720;48.274;7.796;2023-12-14T13:44:56;10.90;99.90
7360;DHT22;3720;48.274;7.796;2023-12-14T13:47:28;10.70;99.90
7360;DHT22;3720;48.274;7.796;2023-12-14T13:50:01;10.70;99.90
7360;DHT22;3720;48.274;7.796;2023-12-14T13:52:34;10.60;99.90
7360;DHT22;3720;48.274;7.796;2023-12-14T13:55:06;10.50;99.90
7360;DHT22;3720;48.274;7.796;2023-12-14T13:57:38;10.40;99.90
7360;DHT22;3720;48.274;7.796;2023-12-14T14:00:11;10.40;99.90
7360;DHT22;3720;48.274;7.796;2023-12-14T14:02:43;10.30;99.90
7360;DHT22;3720;48.274;7.796;2023-12-14T14:05:16;10.30;99.90
7360;DHT22;3720;48.274;7.796;2023-12-14T14:07:48;10.40;99.90
7360;DHT22;3720;48.274;7.796;2023-12-14T14:10:20;10.40;99.90
7360;DHT22;3720;48.274;7.796;2023-12-14T14:12:52;10.30;99.90
7360;DHT22;3720;48.274;7.796;2023-12-14T14:15:23;10.30;99.90
7360;DHT22;3720;48.274;7.796;2023-12-14T14:17:56;10.30;99.90
7360;DHT22;3720;48.274;7.796;2023-12-14T14:20:29;10.30;99.90
7360;DHT22;3720;48.274;7.796;2023-12-14T14:23:01;10.20;99.90
7360;DHT22;3720;48.274;7.796;2023-12-14T14:25:32;10.30;99.90
7360;DHT22;3720;48.274;7.796;2023-12-14T14:28:04;10.20;99.90
7360;DHT22;3720;48.274;7.796;2023-12-14T14:30:36;10.20;99.90
7360;DHT22;3720;48.274;7.796;2023-12-14T14:33:08;10.20;99.90
7360;DHT22;3720;48.274;7.796;2023-12-14T14:35:41;10.10;99.90
7360;DHT22;3720;48.274;7.796;2023-12-14T14:38:13;10.10;99.90
7360;DHT22;3720;48.274;7.796;2023-12-14T14:40:45;10.10;99.90
7360;DHT22;3720;48.274;7.796;2023-12-14T14:43:17;10.10;99.90
7360;DHT22;3720;48.274;7.796;2023-12-14T14:45:49;10.10;99.90
7360;DHT22;3720;48.274;7.796;2023-12-14T14:48:21;10.10;99.90
7360;DHT22;3720;48.274;7.796;2023-12-14T14:50:54;10.10;99.90
7360;DHT22;3720;48.274;7.796;2023-12-14T14:53:26;10.10;99.90
7360;DHT22;3720;48.274;7.796;2023-12-14T14:55:58;10.00;99.90
7360;DHT22;3720;48.274;7.796;2023-12-14T14:58:30;10.00;99.90
7360;DHT22;3720;48.274;7.796;2023-12-14T15:01:02;10.00;99.90
7360;DHT22;3720;48.274;7.796;2023-12-14T15:03:33;10.00;99.90
7360;DHT22;3720;48.274;7.796;2023-12-14T15:06:07;10.00;99.90
7360;DHT22;3720;48.274;7.796;2023-12-14T15:08:39;10.00;99.90
7360;DHT22;3720;48.274;7.796;2023-12-14T15:11:11;9.90;99.90
7360;DHT22;3720;48.274;7.796;2023-12-14T15:13:43;9.90;99.90
7360;DHT22;3720;48.274;7.796;2023-12-14T15:16:15;9.90;99.90
7360;DHT22;3720;48.274;7.796;2023-12-14T15:18:47;9.90;99.90
7360;DHT22;3720;48.274;7.796;2023-12-14T15:21:20;9.80;99.90
7360;DHT22;3720;48.274;7.796;2023-12-14T15:23:52;9.80;99.90
7360;DHT22;3720;48.274;7.796;2023-12-14T15:26:24;9.90;99.90
7360;DHT22;3720;48.274;7.796;2023-12-14T15:28:59;9.80;99.90
7360;DHT22;3720;48.274;7.796;2023-12-14T15:31:31;9.70;99.90
7360;DHT22;3720;48.274;7.796;2023-12-14T15:34:03;9.70;99.90
7360;DHT22;3720;48.274;7.796;2023-12-14T15:36:38;9.70;99.90
7360;DHT22;3720;48.274;7.796;2023-12-14T15:39:10;9.70;99.90
7360;DHT22;3720;48.274;7.796;2023-12-14T15:41:42;9.60;99.90
7360;DHT22;3720;48.274;7.796;2023-12-14T15:44:14;9.70;99.90
7360;DHT22;3720;48.274;7.796;2023-12-14T15:46:45;9.70;99.90
7360;DHT22;3720;48.274;7.796;2023-12-14T15:49:17;9.70;99.90
7360;DHT22;3720;48.274;7.796;2023-12-14T15:51:50;9.70;99.90
7360;DHT22;3720;48.274;7.796;2023-12-14T15:54:23;9.80;99.90
7360;DHT22;3720;48.274;7.796;2023-12-14T15:56:54;9.70;99.90
7360;DHT22;3720;48.274;7.796;2023-12-14T15:59:26;9.60;99.90
7360;DHT22;3720;48.274;7.796;2023-12-14T16:01:58;9.70;99.90
7360;DHT22;3720;48.274;7.796;2023-12-14T16:04:30;9.60;99.90
7360;DHT22;3720;48.274;7.796;2023-12-14T16:07:04;9.60;99.90
7360;DHT22;3720;48.274;7.796;2023-12-14T16:09:36;9.50;99.90
7360;DHT22;3720;48.274;7.796;2023-12-14T16:12:08;9.50;99.90
7360;DHT22;3720;48.274;7.796;2023-12-14T16:14:39;9.60;99.90
7360;DHT22;3720;48.274;7.796;2023-12-14T16:17:11;9.60;99.90
7360;DHT22;3720;48.274;7.796;2023-12-14T16:19:43;9.50;99.90
7360;DHT22;3720;48.274;7.796;2023-12-14T16:22:17;9.50;99.90
7360;DHT22;3720;48.274;7.796;2023-12-14T16:24:48;9.40;99.90
7360;DHT22;3720;48.274;7.796;2023-12-14T16:27:20;9.40;99.90
7360;DHT22;3720;48.274;7.796;2023-12-14T16:29:52;9.30;99.90
7360;DHT22;3720;48.274;7.796;2023-12-14T16:32:24;9.20;99.90
7360;DHT22;3720;48.274;7.796;2023-12-14T16:34:56;9.10;99.90
7360;DHT22;3720;48.274;7.796;2023-12-14T16:37:30;9.20;99.90
7360;DHT22;3720;48.274;7.796;2023-12-14T16:40:01;9.20;99.90
7360;DHT22;3720;48.274;7.796;2023-12-14T16:42:33;9.20;99.90
7360;DHT22;3720;48.274;7.796;2023-12-14T16:45:06;9.10;99.90
7360;DHT22;3720;48.274;7.796;2023-12-14T16:47:39;9.10;99.90
7360;DHT22;3720;48.274;7.796;2023-12-14T16:50:11;9.20;99.90